Time;durP1;ratioP1;P1;durP2;ratioP2;P2;SDS_P1;SDS_P2;PMS_P1;PMS_P2;Temp;Humidity;BMP_temperature;BMP_pressure;BME280_temperature;BME280_humidity;BME280_pressure;Samples;Min_cycle;Max_cycle;Signal;HPM_P1;HPM_P2
2021/12/13 00:02:15;;;;;;;3.78;1.75;;;4.20;86.10;;;;;;5052985;28;20024;-76
2021/12/13 00:05:12;;;;;;;4.65;1.75;;;3.80;88.40;;;;;;5042338;28;20040;-76
2021/12/13 00:07:41;;;;;;;3.40;1.55;;;4.00;86.90;;;;;;5070704;28;20112;-76
2021/12/13 00:10:13;;;;;;;6.45;1.70;;;4.00;86.60;;;;;;5055171;28;20052;-76
2021/12/13 00:12:43;;;;;;;2.97;1.48;;;4.00;86.90;;;;;;5054759;28;20475;-76
2021/12/13 00:15:15;;;;;;;3.90;1.65;;;4.00;87.50;;;;;;5063280;28;20039;-76
2021/12/13 00:17:45;;;;;;;3.22;1.40;;;3.80;89.10;;;;;;5068958;28;20135;-76
2021/12/13 00:20:30;;;;;;;4.45;2.00;;;3.80;88.60;;;;;;5054459;28;20032;-76
2021/12/13 00:23:09;;;;;;;3.25;1.83;;;3.40;90.20;;;;;;5053894;28;20021;-76
2021/12/13 00:25:40;;;;;;;7.68;2.15;;;3.30;89.20;;;;;;5053242;28;20159;-76
2021/12/13 00:28:10;;;;;;;3.13;1.52;;;3.40;90.40;;;;;;5062558;28;20490;-76
2021/12/13 00:30:41;;;;;;;3.88;1.90;;;3.60;88.50;;;;;;5063671;28;20049;-76
2021/12/13 00:33:11;;;;;;;3.13;1.55;;;3.90;87.60;;;;;;5056020;28;20025;-76
2021/12/13 00:35:54;;;;;;;5.15;1.77;;;3.90;87.70;;;;;;5061374;28;20025;-76
2021/12/13 00:38:25;;;;;;;2.85;1.42;;;3.90;88.50;;;;;;5065732;28;20132;-76
2021/12/13 00:41:02;;;;;;;3.70;1.70;;;4.00;87.70;;;;;;5058278;28;20499;-76
2021/12/13 00:43:35;;;;;;;4.88;2.05;;;3.80;88.90;;;;;;5066027;28;20025;-76
2021/12/13 00:46:11;;;;;;;4.15;2.20;;;3.70;90.00;;;;;;5062489;28;21165;-76
2021/12/13 00:48:42;;;;;;;3.85;1.80;;;3.50;90.50;;;;;;5069545;28;20032;-76
2021/12/13 00:51:33;;;;;;;6.22;3.00;;;3.30;90.50;;;;;;5058521;28;20498;-76
2021/12/13 00:54:02;;;;;;;4.15;1.90;;;3.30;90.50;;;;;;5072557;28;20391;-76
2021/12/13 00:56:59;;;;;;;2.88;1.45;;;3.20;91.80;;;;;;5056663;28;20021;-76
2021/12/13 00:59:36;;;;;;;5.47;1.95;;;3.20;91.80;;;;;;5072830;28;20123;-76
2021/12/13 01:02:09;;;;;;;5.95;1.77;;;3.20;91.70;;;;;;5056594;28;20032;-76
2021/12/13 01:05:23;;;;;;;6.40;2.50;;;3.10;91.80;;;;;;5053107;28;20029;-76
2021/12/13 01:08:10;;;;;;;8.45;3.03;;;3.00;92.00;;;;;;5050303;28;20594;-76
2021/12/13 01:10:39;;;;;;;5.72;3.35;;;3.00;91.60;;;;;;5068257;28;20252;-76
2021/12/13 01:13:14;;;;;;;10.02;3.30;;;2.80;91.40;;;;;;5059637;28;20528;-76
2021/12/13 01:15:48;;;;;;;7.03;3.45;;;2.90;91.50;;;;;;5053934;28;20029;-76
2021/12/13 01:23:53;;;;;;;4.78;2.13;;;2.70;92.30;;;;;;5053205;28;20089;-76
2021/12/13 01:28:56;;;;;;;6.45;2.75;;;2.80;91.80;;;;;;5062814;28;20044;-76
2021/12/13 01:31:31;;;;;;;6.25;2.40;;;2.80;92.30;;;;;;5052713;28;20117;-76
2021/12/13 01:33:59;;;;;;;3.25;1.52;;;2.90;91.70;;;;;;5052414;28;20021;-76
2021/12/13 01:36:32;;;;;;;8.70;2.25;;;3.10;91.20;;;;;;5053203;28;20021;-76
2021/12/13 01:39:04;;;;;;;5.82;2.40;;;3.10;91.20;;;;;;5062847;28;20032;-76
2021/12/13 01:41:38;;;;;;;4.25;1.63;;;3.10;91.60;;;;;;5053241;28;20082;-76
2021/12/13 01:44:13;;;;;;;6.10;2.33;;;3.00;92.20;;;;;;5068660;28;20035;-76
2021/12/13 01:46:40;;;;;;;;;;;3.00;91.80;;;;;;5052459;28;20053;-76
2021/12/13 01:49:06;;;;;;;4.72;2.08;;;3.10;91.80;;;;;;5053156;28;19951;-76
2021/12/13 01:51:34;;;;;;;5.03;2.10;;;3.10;91.90;;;;;;5052744;28;20028;-76
2021/12/13 01:54:06;;;;;;;4.55;1.67;;;3.10;91.60;;;;;;5061616;28;20362;-76
2021/12/13 01:56:54;;;;;;;3.83;2.10;;;3.30;90.80;;;;;;5053424;28;20103;-76
2021/12/13 02:02:00;;;;;;;5.43;2.13;;;3.20;91.10;;;;;;5057795;28;20036;-76
2021/12/13 02:04:26;;;;;;;5.30;2.63;;;3.20;91.20;;;;;;5059230;28;20051;-77
2021/12/13 02:07:01;;;;;;;7.13;2.08;;;3.10;92.10;;;;;;5067163;28;20028;-76
2021/12/13 02:09:31;;;;;;;3.55;1.90;;;3.00;92.80;;;;;;5068464;28;20024;-76
2021/12/13 02:12:00;;;;;;;6.05;2.10;;;3.00;92.50;;;;;;5051898;28;20037;-76
2021/12/13 02:14:31;;;;;;;4.25;1.98;;;2.90;92.10;;;;;;5052737;28;20084;-76
2021/12/13 02:17:21;;;;;;;4.80;2.30;;;2.90;92.30;;;;;;5052329;28;20021;-76
2021/12/13 02:19:49;;;;;;;6.55;2.63;;;2.90;92.50;;;;;;5052004;28;20033;-76
2021/12/13 02:22:30;;;;;;;6.05;2.13;;;2.80;91.70;;;;;;5051590;28;20505;-76
2021/12/13 02:25:22;;;;;;;5.18;2.38;;;2.90;91.60;;;;;;5051944;28;20021;-76
2021/12/13 02:27:59;;;;;;;4.78;2.33;;;2.90;91.50;;;;;;5055713;28;20479;-76
2021/12/13 02:30:40;;;;;;;4.15;1.98;;;3.10;91.20;;;;;;5070820;28;20383;-76
2021/12/13 02:33:12;;;;;;;4.25;1.92;;;3.10;91.50;;;;;;5058590;28;20078;-76
2021/12/13 02:35:42;;;;;;;6.40;2.13;;;3.10;91.90;;;;;;5064796;28;20033;-76
2021/12/13 02:38:12;;;;;;;5.10;1.77;;;3.10;92.00;;;;;;5051727;28;20112;-76
2021/12/13 02:40:38;;;;;;;4.07;1.52;;;3.00;91.80;;;;;;5069053;28;20074;-76
2021/12/13 02:43:09;;;;;;;4.28;1.60;;;3.00;91.80;;;;;;5069296;28;20387;-76
2021/12/13 02:45:44;;;;;;;4.45;1.88;;;3.10;91.70;;;;;;5052305;28;20510;-76
2021/12/13 02:48:16;;;;;;;3.97;1.80;;;3.20;91.50;;;;;;5052894;28;20037;-76
2021/12/13 02:50:48;;;;;;;2.75;1.30;;;3.20;92.00;;;;;;5055408;28;20037;-76
2021/12/13 02:53:16;;;;;;;3.88;1.83;;;3.00;92.10;;;;;;5048990;28;20148;-76
2021/12/13 02:55:43;;;;;;;5.80;1.77;;;3.10;92.10;;;;;;5066528;28;20032;-76
2021/12/13 02:58:12;;;;;;;3.92;1.63;;;3.10;91.90;;;;;;5062838;28;20044;-76
2021/12/13 03:00:52;;;;;;;5.47;1.58;;;3.40;91.30;;;;;;5050535;28;20039;-76
2021/12/13 03:03:22;;;;;;;4.20;1.92;;;3.50;91.00;;;;;;5052681;28;20028;-76
2021/12/13 03:05:51;;;;;;;4.25;2.13;;;3.30;91.50;;;;;;5058621;28;20109;-76
2021/12/13 03:08:28;;;;;;;4.78;1.65;;;3.10;91.60;;;;;;5053712;28;20527;-76
2021/12/13 03:10:59;;;;;;;5.15;1.88;;;3.10;92.10;;;;;;5050615;28;20041;-76
2021/12/13 03:13:25;;;;;;;5.07;2.17;;;3.00;92.80;;;;;;5048402;28;20045;-76
2021/12/13 03:16:00;;;;;;;3.97;1.60;;;3.10;93.00;;;;;;5069791;28;20490;-76
2021/12/13 03:18:38;;;;;;;3.30;1.50;;;3.20;93.20;;;;;;5057012;28;20033;-76
2021/12/13 03:21:21;;;;;;;5.68;1.90;;;3.10;93.00;;;;;;5048784;28;20037;-76
2021/12/13 03:23:55;;;;;;;3.30;1.50;;;2.90;92.90;;;;;;5050971;28;20032;-76
2021/12/13 03:26:49;;;;;;;4.80;1.48;;;2.80;93.40;;;;;;5065902;28;20029;-76
2021/12/13 03:29:25;;;;;;;3.80;1.52;;;2.80;92.90;;;;;;5056343;28;20079;-76
2021/12/13 03:31:57;;;;;;;3.75;1.38;;;2.90;92.70;;;;;;5051066;28;20025;-76
2021/12/13 03:34:30;;;;;;;2.53;1.30;;;3.00;92.50;;;;;;5054320;28;20028;-76
2021/12/13 03:37:15;;;;;;;4.93;1.48;;;3.30;91.90;;;;;;5051270;28;20525;-76
2021/12/13 03:39:47;;;;;;;5.45;1.90;;;3.20;92.30;;;;;;5064577;28;20040;-76
2021/12/13 03:42:20;;;;;;;3.13;1.30;;;3.20;92.20;;;;;;5051568;28;20479;-76
2021/12/13 03:44:50;;;;;;;4.35;1.30;;;3.40;92.10;;;;;;5068981;28;20028;-76
2021/12/13 03:47:39;;;;;;;4.35;1.70;;;3.30;92.30;;;;;;5071392;28;20546;-76
2021/12/13 03:50:11;;;;;;;4.65;1.33;;;3.40;91.90;;;;;;5051945;28;20029;-76
2021/12/13 03:52:42;;;;;;;2.67;1.17;;;3.40;92.30;;;;;;5051138;28;20021;-76
2021/12/13 03:55:09;;;;;;;2.70;1.23;;;3.40;92.10;;;;;;5061649;28;20048;-76
2021/12/13 03:57:41;;;;;;;2.88;1.05;;;3.60;91.20;;;;;;5054901;28;20483;-76
2021/12/13 04:00:08;;;;;;;3.33;1.50;;;3.60;91.80;;;;;;5066963;28;20032;-73
2021/12/13 04:02:39;;;;;;;2.83;1.55;;;3.70;91.40;;;;;;5055249;28;20028;-75
2021/12/13 04:05:12;;;;;;;3.70;1.60;;;3.60;91.90;;;;;;5052639;28;20048;-75
2021/12/13 04:07:52;;;;;;;3.47;1.65;;;3.40;91.70;;;;;;5049139;28;20036;-75
2021/12/13 04:10:29;;;;;;;1.88;1.17;;;3.30;92.10;;;;;;5053283;28;20023;-75
2021/12/13 04:12:59;;;;;;;2.20;1.10;;;3.30;91.90;;;;;;5065142;28;20176;-75
2021/12/13 04:15:50;;;;;;;3.22;1.33;;;3.70;91.30;;;;;;5055202;28;20024;-75
2021/12/13 04:18:41;;;;;;;2.55;1.10;;;3.80;91.20;;;;;;5048681;28;20507;-75
2021/12/13 04:21:08;;;;;;;2.40;1.10;;;3.60;91.60;;;;;;5047055;28;20021;-75
2021/12/13 04:23:35;;;;;;;2.67;1.05;;;3.60;91.40;;;;;;5059010;28;20040;-75
2021/12/13 04:26:04;;;;;;;2.03;1.00;;;3.70;91.50;;;;;;5055285;28;20179;-75
2021/12/13 04:28:49;;;;;;;3.45;1.40;;;3.70;91.40;;;;;;5048613;28;20032;-75
2021/12/13 04:31:20;;;;;;;4.07;1.88;;;3.60;91.60;;;;;;5049827;28;20052;-75
2021/12/13 04:33:56;;;;;;;2.58;1.20;;;3.30;91.90;;;;;;5050688;28;20029;-75
2021/12/13 04:36:27;;;;;;;3.15;1.30;;;3.10;92.40;;;;;;5050426;28;20052;-75
2021/12/13 04:39:13;;;;;;;3.80;1.38;;;3.10;92.30;;;;;;5047574;28;20074;-75
2021/12/13 04:41:49;;;;;;;2.92;1.45;;;3.00;93.30;;;;;;5047889;28;20497;-75
2021/12/13 04:44:38;;;;;;;4.88;1.35;;;2.70;93.50;;;;;;5049063;28;20047;-75
2021/12/13 04:47:11;;;;;;;2.08;0.95;;;2.70;93.30;;;;;;5046430;28;20088;-75
2021/12/13 04:49:46;;;;;;;4.35;1.38;;;3.00;93.10;;;;;;5046496;28;20032;-75
2021/12/13 04:52:18;;;;;;;4.40;1.88;;;3.10;92.60;;;;;;5046476;28;20380;-75
2021/12/13 04:54:48;;;;;;;5.32;1.98;;;2.80;92.80;;;;;;5047843;28;20060;-75
2021/12/13 04:57:15;;;;;;;4.05;2.17;;;2.50;93.40;;;;;;5047330;28;20029;-75
2021/12/13 04:59:46;;;;;;;5.72;2.42;;;2.40;93.60;;;;;;5050558;28;20033;-75
2021/12/13 05:02:12;;;;;;;4.63;2.10;;;2.40;93.80;;;;;;5045862;28;20564;-75
2021/12/13 05:04:38;;;;;;;3.72;1.85;;;2.20;93.70;;;;;;5048816;28;20031;-75
2021/12/13 05:07:06;;;;;;;5.47;2.17;;;2.10;93.80;;;;;;5059732;28;20561;-75
2021/12/13 05:09:33;;;;;;;5.22;2.53;;;2.10;94.40;;;;;;5063169;28;20024;-75
2021/12/13 05:12:02;;;;;;;4.40;1.48;;;2.20;94.80;;;;;;5062291;28;20056;-75
2021/12/13 05:15:12;;;;;;;5.53;1.17;;;2.20;94.70;;;;;;5052017;28;20029;-75
2021/12/13 05:17:42;;;;;;;2.45;0.77;;;2.70;94.00;;;;;;5061278;28;20119;-75
2021/12/13 05:20:24;;;;;;;5.22;2.25;;;3.00;93.40;;;;;;5049481;28;20650;-75
2021/12/13 05:22:50;;;;;;;3.95;1.60;;;2.50;93.90;;;;;;5046835;28;20049;-75
2021/12/13 05:25:40;;;;;;;3.38;1.23;;;2.20;94.70;;;;;;5045663;28;20068;-75
2021/12/13 05:28:17;;;;;;;2.63;1.05;;;2.20;95.50;;;;;;5051943;28;20025;-75
2021/12/13 05:31:09;;;;;;;6.38;2.38;;;2.10;95.20;;;;;;5049103;28;20029;-75
2021/12/13 05:33:38;;;;;;;3.70;1.85;;;2.10;94.40;;;;;;5060356;28;20028;-75
2021/12/13 05:36:09;;;;;;;3.35;1.23;;;2.30;94.40;;;;;;5068782;28;20032;-75
2021/12/13 05:38:42;;;;;;;6.57;2.10;;;2.20;95.80;;;;;;5054972;28;20363;-75
2021/12/13 05:41:19;;;;;;;5.88;2.22;;;2.10;95.20;;;;;;5049913;28;20100;-75
2021/12/13 05:43:51;;;;;;;5.47;2.40;;;2.20;94.60;;;;;;5055297;28;20155;-75
2021/12/13 05:46:23;;;;;;;5.07;1.90;;;2.20;94.30;;;;;;5059961;28;20304;-74
2021/12/13 05:48:53;;;;;;;4.05;1.85;;;2.30;94.00;;;;;;5048337;28;20031;-74
2021/12/13 05:51:22;;;;;;;6.50;2.08;;;2.20;94.50;;;;;;5047991;28;20028;-75
2021/12/13 05:54:01;;;;;;;3.97;1.73;;;2.20;94.00;;;;;;5062240;28;20067;-75
2021/12/13 05:56:36;;;;;;;4.72;2.05;;;2.20;94.00;;;;;;5030840;28;20131;-75
2021/12/13 05:59:19;;;;;;;3.65;1.33;;;2.20;94.20;;;;;;5057057;28;20601;-75
2021/12/13 06:02:30;;;;;;;3.20;1.25;;;2.20;95.20;;;;;;5047028;28;20029;-75
2021/12/13 06:05:02;;;;;;;3.60;1.55;;;2.20;94.80;;;;;;5044767;28;20029;-75
2021/12/13 06:07:29;;;;;;;4.22;2.20;;;2.30;94.10;;;;;;5050809;28;20033;-75
2021/12/13 06:10:09;;;;;;;4.45;1.63;;;2.20;94.40;;;;;;5056412;28;20021;-75
2021/12/13 06:12:55;;;;;;;4.43;1.92;;;2.20;94.60;;;;;;5046373;28;20071;-75
2021/12/13 06:15:27;;;;;;;4.78;1.35;;;2.10;95.20;;;;;;5045174;28;20086;-75
2021/12/13 06:18:04;;;;;;;3.42;1.40;;;2.10;95.30;;;;;;5047059;28;20033;-75
2021/12/13 06:20:58;;;;;;;3.72;1.50;;;2.00;95.30;;;;;;5061475;28;20031;-75
2021/12/13 06:23:29;;;;;;;4.47;1.40;;;2.00;95.30;;;;;;5059793;28;20039;-75
2021/12/13 06:26:04;;;;;;;5.13;2.47;;;2.10;95.10;;;;;;5067722;28;20090;-75
2021/12/13 06:28:38;;;;;;;4.30;2.10;;;2.00;95.70;;;;;;5059868;28;20432;-76
2021/12/13 06:31:17;;;;;;;3.50;1.42;;;2.10;95.40;;;;;;5071907;28;20084;-76
2021/12/13 06:33:58;;;;;;;3.08;1.17;;;2.00;95.60;;;;;;5053247;28;20028;-76
2021/12/13 06:36:29;;;;;;;2.60;1.40;;;2.20;96.20;;;;;;5045463;28;20032;-77
2021/12/13 06:38:57;;;;;;;3.30;1.52;;;2.20;95.80;;;;;;5051307;28;20047;-75
2021/12/13 06:41:26;;;;;;;5.70;3.00;;;2.50;95.40;;;;;;5060254;28;20029;-75
2021/12/13 06:44:00;;;;;;;4.40;2.47;;;2.90;94.60;;;;;;5059041;28;20029;-75
2021/12/13 06:46:25;;;;;;;6.40;2.87;;;2.70;95.10;;;;;;5064356;28;20056;-75
2021/12/13 06:48:59;;;;;;;5.78;3.00;;;2.40;95.00;;;;;;5064670;28;20051;-75
2021/12/13 06:51:49;;;;;;;5.05;2.75;;;2.30;95.10;;;;;;5063257;28;20091;-75
2021/12/13 06:54:15;;;;;;;3.08;2.00;;;2.10;95.60;;;;;;5064045;28;20031;-75
2021/12/13 06:56:44;;;;;;;5.40;2.75;;;2.00;96.00;;;;;;5064647;28;20028;-74
2021/12/13 06:59:16;;;;;;;4.88;2.13;;;2.10;96.10;;;;;;5064087;28;20032;-74
2021/12/13 07:01:54;;;;;;;4.80;2.00;;;2.10;96.00;;;;;;5063617;28;20032;-74
2021/12/13 07:04:20;;;;;;;2.75;1.30;;;2.10;95.40;;;;;;5051200;28;20063;-75
2021/12/13 07:06:46;;;;;;;2.60;1.20;;;2.40;95.20;;;;;;5064619;28;20048;-75
2021/12/13 07:09:16;;;;;;;3.38;1.88;;;2.40;95.00;;;;;;5062447;28;20033;-75
2021/12/13 07:11:54;;;;;;;12.00;6.70;;;2.60;94.60;;;;;;5063145;28;20433;-75
2021/12/13 07:14:30;;;;;;;3.45;1.63;;;2.50;95.10;;;;;;5061597;28;20044;-75
2021/12/13 07:16:56;;;;;;;4.40;1.98;;;2.40;95.50;;;;;;5062318;28;20048;-76
2021/12/13 07:19:27;;;;;;;3.58;1.90;;;2.40;95.90;;;;;;5070771;28;20064;-76
2021/12/13 07:21:57;;;;;;;3.45;1.65;;;2.30;95.90;;;;;;5062983;28;20025;-77
2021/12/13 07:24:42;;;;;;;8.13;2.85;;;2.20;95.70;;;;;;5044360;28;20040;-77
2021/12/13 07:27:33;;;;;;;10.43;5.93;;;2.20;96.00;;;;;;5042647;28;20811;-77
2021/12/13 07:30:23;;;;;;;3.80;1.50;;;2.10;96.80;;;;;;5043443;28;20101;-77
2021/12/13 07:32:58;;;;;;;4.13;1.88;;;2.30;96.30;;;;;;5043809;28;20029;-77
2021/12/13 07:35:40;;;;;;;4.07;1.98;;;2.40;96.10;;;;;;5062844;28;20021;-77
2021/12/13 07:38:08;;;;;;;10.43;2.85;;;2.10;96.20;;;;;;5062987;28;20498;-77
2021/12/13 07:40:39;;;;;;;9.52;4.07;;;2.10;96.20;;;;;;5066905;28;20044;-76
2021/12/13 07:43:16;;;;;;;77.45;32.47;;;2.10;96.40;;;;;;5067217;28;20021;-77
2021/12/13 07:46:19;;;;;;;7.90;2.88;;;2.20;96.10;;;;;;5046674;28;20090;-77
2021/12/13 07:48:45;;;;;;;10.23;6.00;;;2.30;96.10;;;;;;5046403;28;20575;-77
2021/12/13 07:51:13;;;;;;;7.40;3.70;;;2.40;96.70;;;;;;5047303;28;20029;-77
2021/12/13 07:53:52;;;;;;;4.40;1.83;;;2.30;97.20;;;;;;5048433;28;20510;-77
2021/12/13 07:56:29;;;;;;;3.80;1.20;;;2.30;97.00;;;;;;5055696;28;20033;-76
2021/12/13 07:59:15;;;;;;;10.38;5.15;;;2.60;96.10;;;;;;5049739;28;20047;-76
2021/12/13 08:01:56;;;;;;;5.82;2.85;;;2.60;96.10;;;;;;5066638;28;20075;-76
2021/12/13 08:04:44;;;;;;;5.80;2.67;;;2.50;96.20;;;;;;5065984;28;20016;-76
2021/12/13 08:07:23;;;;;;;9.52;4.68;;;2.20;96.10;;;;;;5067493;28;20058;-76
2021/12/13 08:10:13;;;;;;;5.20;2.65;;;2.20;96.60;;;;;;5061855;28;20040;-74
2021/12/13 08:12:44;;;;;;;6.10;2.60;;;2.00;97.10;;;;;;5056057;28;20032;-75
2021/12/13 08:15:17;;;;;;;3.55;1.63;;;2.20;97.10;;;;;;5052961;28;20064;-75
2021/12/13 08:18:09;;;;;;;3.53;1.60;;;2.40;97.10;;;;;;5047742;28;20067;-74
2021/12/13 08:20:41;;;;;;;4.82;1.92;;;2.50;96.40;;;;;;5048110;28;20051;-75
2021/12/13 08:23:17;;;;;;;4.70;2.25;;;2.60;95.80;;;;;;5052786;28;20021;-75
2021/12/13 08:25:49;;;;;;;3.80;1.60;;;2.70;95.70;;;;;;5056107;28;20047;-74
2021/12/13 08:28:19;;;;;;;3.03;1.33;;;2.70;96.40;;;;;;5049163;28;20029;-75
2021/12/13 08:30:47;;;;;;;2.97;0.90;;;2.90;96.40;;;;;;5049840;28;20052;-75
2021/12/13 08:33:31;;;;;;;2.90;0.98;;;3.20;96.50;;;;;;5053193;28;20070;-75
2021/12/13 08:36:07;;;;;;;2.33;0.80;;;3.30;96.10;;;;;;5070190;28;20044;-75
2021/12/13 08:38:51;;;;;;;3.08;1.38;;;3.20;96.00;;;;;;5069831;28;20401;-75
2021/12/13 08:41:42;;;;;;;3.50;1.30;;;3.50;95.10;;;;;;5069788;28;20466;-75
2021/12/13 08:44:11;;;;;;;6.15;2.78;;;3.20;96.20;;;;;;5060504;28;20068;-75
2021/12/13 08:46:46;;;;;;;8.00;3.47;;;2.60;96.20;;;;;;5031382;28;20076;-75
2021/12/13 08:49:18;;;;;;;7.32;3.50;;;2.50;96.30;;;;;;5061440;28;20044;-75
2021/12/13 08:52:05;;;;;;;6.55;2.70;;;2.50;97.20;;;;;;5050451;28;20077;-75
2021/12/13 08:54:36;;;;;;;7.57;3.70;;;2.40;97.50;;;;;;5061225;28;20032;-75
2021/12/13 08:57:06;;;;;;;15.55;8.07;;;2.20;97.70;;;;;;5049506;28;20382;-75
2021/12/13 08:59:32;;;;;;;6.85;3.40;;;2.10;98.90;;;;;;5049388;28;20033;-75
2021/12/13 09:02:06;;;;;;;4.93;2.28;;;2.40;98.40;;;;;;5049470;28;20025;-75
2021/12/13 09:04:38;;;;;;;6.28;3.72;;;2.60;98.10;;;;;;5062352;28;20020;-75
2021/12/13 09:07:09;;;;;;;21.05;10.77;;;2.50;98.10;;;;;;5069488;28;20039;-74
2021/12/13 09:09:45;;;;;;;46.92;31.80;;;2.40;97.60;;;;;;5067865;28;20029;-74
2021/12/13 09:12:24;;;;;;;16.83;10.50;;;2.40;99.20;;;;;;5069202;28;20037;-74
2021/12/13 09:14:52;;;;;;;5.95;2.90;;;2.60;99.70;;;;;;5066645;28;20040;-75
2021/12/13 09:17:32;;;;;;;7.28;2.70;;;2.90;98.70;;;;;;5067607;28;20021;-75
2021/12/13 09:20:10;;;;;;;3.88;1.65;;;2.90;98.40;;;;;;5066659;28;20040;-75
2021/12/13 09:22:48;;;;;;;3.63;1.90;;;2.90;98.30;;;;;;5063925;28;20021;-75
2021/12/13 09:25:19;;;;;;;3.65;1.90;;;3.00;97.10;;;;;;5047785;28;20044;-75
2021/12/13 09:27:57;;;;;;;4.60;2.30;;;3.10;96.90;;;;;;5046726;28;20025;-74
2021/12/13 09:30:36;;;;;;;4.43;2.03;;;3.10;97.10;;;;;;5048682;28;20078;-74
2021/12/13 09:33:24;;;;;;;8.88;4.10;;;3.10;97.30;;;;;;5048907;28;20108;-75
2021/12/13 09:36:04;;;;;;;14.73;7.25;;;3.10;97.40;;;;;;5062940;28;20054;-75
2021/12/13 09:38:45;;;;;;;11.77;5.40;;;3.00;97.70;;;;;;5065377;28;20502;-75
2021/12/13 09:41:57;;;;;;;9.82;3.40;;;3.00;97.80;;;;;;5065303;28;20032;-75
2021/12/13 09:44:58;;;;;;;51.10;25.25;;;2.80;98.10;;;;;;5064539;28;20028;-75
2021/12/13 09:47:36;;;;;;;14.65;7.22;;;2.90;97.80;;;;;;5045438;28;20135;-75
2021/12/13 09:50:10;;;;;;;22.60;12.70;;;3.00;97.30;;;;;;5045772;28;20070;-75
2021/12/13 09:52:47;;;;;;;11.60;6.75;;;3.00;97.40;;;;;;5045140;28;20593;-75
2021/12/13 09:55:42;;;;;;;15.15;9.48;;;3.00;97.90;;;;;;5049773;28;20029;-75
2021/12/13 09:58:13;;;;;;;6.65;3.15;;;3.30;97.20;;;;;;5047798;28;20033;-75
2021/12/13 10:01:04;;;;;;;4.32;1.98;;;3.40;97.50;;;;;;5064895;28;20083;-75
2021/12/13 10:03:42;;;;;;;4.38;1.85;;;3.50;97.20;;;;;;5065146;28;20360;-75
2021/12/13 10:06:11;;;;;;;7.05;2.75;;;3.60;97.20;;;;;;5055175;28;20025;-75
2021/12/13 10:08:45;;;;;;;6.35;2.70;;;3.60;97.30;;;;;;5044842;28;20037;-75
2021/12/13 10:11:18;;;;;;;6.63;5.05;;;3.50;97.50;;;;;;5054538;28;20107;-75
2021/12/13 10:13:44;;;;;;;5.70;3.90;;;3.30;97.60;;;;;;5047209;28;21125;-75
2021/12/13 10:16:16;;;;;;;7.47;3.72;;;3.30;97.50;;;;;;5062530;28;20122;-75
2021/12/13 10:18:45;;;;;;;27.05;14.43;;;3.30;97.20;;;;;;5063822;28;20044;-74
2021/12/13 10:21:23;;;;;;;15.13;7.93;;;3.20;97.80;;;;;;5064634;28;20029;-74
2021/12/13 10:24:22;;;;;;;8.55;4.85;;;3.20;98.10;;;;;;5064672;28;20032;-74
2021/12/13 10:26:49;;;;;;;14.00;7.82;;;3.20;98.20;;;;;;5056154;28;20460;-74
2021/12/13 10:29:17;;;;;;;9.32;5.63;;;3.40;97.80;;;;;;5054974;28;20032;-74
2021/12/13 10:31:51;;;;;;;5.90;2.95;;;3.60;97.70;;;;;;5064925;28;20036;-74
2021/12/13 10:34:29;;;;;;;9.38;3.30;;;3.60;98.20;;;;;;5067337;28;20028;-74
2021/12/13 10:37:01;;;;;;;7.53;2.65;;;3.70;97.50;;;;;;5066971;28;20032;-74
2021/12/13 10:39:32;;;;;;;7.72;3.13;;;3.80;96.80;;;;;;5067336;28;20060;-74
2021/12/13 10:42:01;;;;;;;12.43;6.47;;;3.80;97.60;;;;;;5067541;28;20040;-74
2021/12/13 10:44:29;;;;;;;12.73;7.10;;;3.70;97.80;;;;;;5066996;28;20024;-75
2021/12/13 10:47:08;;;;;;;7.55;4.13;;;3.70;97.60;;;;;;5063762;28;20348;-74
2021/12/13 10:49:41;;;;;;;6.65;3.30;;;3.70;97.50;;;;;;5047430;28;20033;-75
2021/12/13 10:52:21;;;;;;;6.35;3.28;;;3.70;97.90;;;;;;5047309;28;20029;-74
2021/12/13 10:54:57;;;;;;;5.80;3.20;;;3.60;97.90;;;;;;5047447;28;20051;-75
2021/12/13 10:57:28;;;;;;;8.75;4.55;;;3.50;98.00;;;;;;5047241;28;20093;-74
2021/12/13 10:59:55;;;;;;;6.35;4.25;;;3.60;97.60;;;;;;5047350;28;20045;-75
2021/12/13 11:02:31;;;;;;;9.50;4.68;;;3.70;97.70;;;;;;5047041;28;20036;-75
2021/12/13 11:05:08;;;;;;;7.93;3.58;;;3.80;97.60;;;;;;5047204;28;20078;-74
2021/12/13 11:07:34;;;;;;;5.82;2.90;;;4.00;97.10;;;;;;5049563;28;20024;-75
2021/12/13 11:10:00;;;;;;;5.68;2.92;;;4.50;97.40;;;;;;5067224;28;20036;-74
2021/12/13 11:12:30;;;;;;;7.72;3.05;;;4.70;97.40;;;;;;5065549;28;20072;-74
2021/12/13 11:15:00;;;;;;;8.23;2.78;;;4.90;96.80;;;;;;5065674;28;20028;-74
2021/12/13 11:17:28;;;;;;;6.10;3.75;;;5.00;96.40;;;;;;5065541;28;20555;-74
2021/12/13 11:20:00;;;;;;;7.28;4.20;;;4.90;96.00;;;;;;5064137;28;20043;-75
2021/12/13 11:22:30;;;;;;;6.43;3.58;;;4.80;96.10;;;;;;5065097;28;20644;-75
2021/12/13 11:25:05;;;;;;;9.20;3.88;;;5.10;96.40;;;;;;5065470;28;20035;-74
2021/12/13 11:27:33;;;;;;;9.30;3.63;;;5.30;96.20;;;;;;5047351;28;20758;-74
2021/12/13 11:30:03;;;;;;;7.13;3.80;;;5.40;96.00;;;;;;5050245;28;20017;-74
2021/12/13 11:32:35;;;;;;;7.32;3.50;;;5.30;95.80;;;;;;5046955;28;20036;-74
2021/12/13 11:35:06;;;;;;;5.22;3.20;;;5.40;95.90;;;;;;5047426;28;20032;-74
2021/12/13 11:37:51;;;;;;;6.72;3.72;;;5.50;95.70;;;;;;5046853;28;20055;-74
2021/12/13 11:40:38;;;;;;;10.77;6.90;;;5.70;95.90;;;;;;5054263;28;20035;-74
2021/12/13 11:43:43;;;;;;;6.82;3.10;;;6.00;95.30;;;;;;5067003;28;20029;-74
2021/12/13 11:46:46;;;;;;;5.55;3.88;;;6.10;94.80;;;;;;5066818;28;20126;-74
2021/12/13 11:49:43;;;;;;;5.47;3.33;;;6.20;95.10;;;;;;5066742;28;20024;-75
2021/12/13 11:52:46;;;;;;;10.52;4.13;;;6.20;94.90;;;;;;5063904;28;20031;-74
2021/12/13 11:55:49;;;;;;;9.80;4.80;;;6.30;94.80;;;;;;5066863;28;20475;-74
2021/12/13 11:58:35;;;;;;;7.85;4.75;;;6.20;94.60;;;;;;5066795;28;20474;-74
2021/12/13 12:01:20;;;;;;;9.98;5.50;;;6.20;94.60;;;;;;5065819;28;20057;-75
2021/12/13 12:04:24;;;;;;;7.15;4.15;;;6.30;94.50;;;;;;5043967;28;20488;-74
2021/12/13 12:07:14;;;;;;;9.18;4.38;;;6.40;94.60;;;;;;5046129;28;20487;-74
2021/12/13 12:10:17;;;;;;;12.63;4.60;;;6.50;94.60;;;;;;5045650;28;20050;-74
2021/12/13 12:13:04;;;;;;;7.55;4.28;;;6.60;94.50;;;;;;5062413;28;20032;-75
2021/12/13 12:15:33;;;;;;;7.75;4.13;;;6.60;94.30;;;;;;5066039;28;20040;-75
2021/12/13 12:18:04;;;;;;;10.43;4.25;;;6.50;94.30;;;;;;5064699;28;20036;-75
2021/12/13 12:20:42;;;;;;;11.75;5.22;;;6.60;94.30;;;;;;5064339;28;20434;-75
2021/12/13 12:23:22;;;;;;;12.13;4.28;;;6.70;94.20;;;;;;5063815;28;20417;-75
2021/12/13 12:25:48;;;;;;;7.57;4.57;;;6.70;94.30;;;;;;5065517;28;20440;-75
2021/12/13 12:28:18;;;;;;;8.93;4.18;;;6.90;94.90;;;;;;5068202;28;20099;-75
2021/12/13 12:30:48;;;;;;;11.20;5.05;;;7.00;94.10;;;;;;5068381;28;20367;-75
2021/12/13 12:33:29;;;;;;;8.63;3.90;;;7.10;94.40;;;;;;5067568;28;20031;-75
2021/12/13 12:35:56;;;;;;;8.30;4.13;;;7.10;93.90;;;;;;5069761;28;20031;-75
2021/12/13 12:38:45;;;;;;;7.20;4.13;;;6.90;93.90;;;;;;5069376;28;20477;-75
2021/12/13 12:41:11;;;;;;;8.13;3.45;;;6.90;94.30;;;;;;5069784;28;20375;-75
2021/12/13 12:43:51;;;;;;;7.70;3.42;;;6.90;94.20;;;;;;5053493;28;20040;-75
2021/12/13 12:46:18;;;;;;;6.95;3.35;;;6.80;93.80;;;;;;5030983;28;20052;-76
2021/12/13 12:48:53;;;;;;;11.40;3.58;;;7.10;96.00;;;;;;5051039;28;20487;-75
2021/12/13 12:51:25;;;;;;;15.88;3.78;;;7.70;93.80;;;;;;5049210;28;20059;-74
2021/12/13 12:54:02;;;;;;;16.73;5.07;;;7.40;93.40;;;;;;5063995;28;20096;-75
2021/12/13 12:56:39;;;;;;;8.82;3.50;;;7.20;93.60;;;;;;5069482;28;20027;-75
2021/12/13 12:59:13;;;;;;;10.35;4.65;;;7.20;93.60;;;;;;5069200;28;20036;-75
2021/12/13 13:01:58;;;;;;;13.80;5.60;;;7.00;93.80;;;;;;5069198;28;20024;-75
2021/12/13 13:04:29;;;;;;;12.18;5.18;;;6.90;94.00;;;;;;5052543;28;20475;-74
2021/12/13 13:06:57;;;;;;;16.65;5.20;;;6.80;94.30;;;;;;5049401;28;20024;-77
2021/12/13 13:09:50;;;;;;;11.07;5.15;;;6.70;94.20;;;;;;5048888;28;20108;-77
2021/12/13 13:12:30;;;;;;;11.73;4.35;;;6.50;94.10;;;;;;5048986;28;20107;-77
2021/12/13 13:15:00;;;;;;;12.52;5.90;;;6.50;94.20;;;;;;5067555;28;20085;-78
2021/12/13 13:17:30;;;;;;;12.05;5.45;;;6.40;94.20;;;;;;5067646;28;20017;-77
2021/12/13 13:20:01;;;;;;;12.20;6.20;;;6.40;94.60;;;;;;5066906;28;20028;-77
2021/12/13 13:22:31;;;;;;;12.50;5.88;;;6.40;94.80;;;;;;5067050;28;20024;-78
2021/12/13 13:25:02;;;;;;;12.48;5.40;;;6.40;95.10;;;;;;5063021;28;20036;-77
2021/12/13 13:27:30;;;;;;;9.75;6.18;;;6.50;94.70;;;;;;5063789;28;20024;-77
2021/12/13 13:29:57;;;;;;;9.55;5.13;;;6.70;94.60;;;;;;5063374;28;20028;-75
2021/12/13 13:32:24;;;;;;;13.23;4.60;;;6.60;94.60;;;;;;5064312;28;20115;-77
2021/12/13 13:34:56;;;;;;;8.57;5.22;;;6.60;94.60;;;;;;5053982;28;20626;-77
2021/12/13 13:37:27;;;;;;;11.82;5.47;;;6.70;94.40;;;;;;5044590;28;20048;-75
2021/12/13 13:40:05;;;;;;;15.52;8.55;;;6.80;94.40;;;;;;5044817;28;20044;-77
2021/12/13 13:42:43;;;;;;;12.35;6.05;;;6.80;94.20;;;;;;5045002;28;20641;-77
2021/12/13 13:45:18;;;;;;;12.38;6.70;;;6.80;94.10;;;;;;5053814;28;20048;-77
2021/12/13 13:47:57;;;;;;;15.98;10.45;;;6.80;94.20;;;;;;5064590;28;20080;-77
2021/12/13 13:50:33;;;;;;;37.33;24.35;;;6.90;94.30;;;;;;5064808;28;20056;-77
2021/12/13 13:53:27;;;;;;;22.20;12.40;;;7.00;94.00;;;;;;5064416;28;20027;-77